sensor_id;sensor_type;location;lat;lon;timestamp;temperature;humidity
42145;DHT22;27813;43.516;11.890;2023-05-10T04:32:13;15.60;95.80
42145;DHT22;27813;43.516;11.890;2023-05-10T04:36:17;15.60;95.90
42145;DHT22;27813;43.516;11.890;2023-05-10T04:40:22;15.60;95.90
42145;DHT22;27813;43.516;11.890;2023-05-10T04:44:27;15.60;95.80
42145;DHT22;27813;43.516;11.890;2023-05-10T04:48:31;15.50;95.80
42145;DHT22;27813;43.516;11.890;2023-05-10T04:52:35;15.50;95.70
42145;DHT22;27813;43.516;11.890;2023-05-10T04:56:40;15.50;95.60
42145;DHT22;27813;43.516;11.890;2023-05-10T05:00:47;15.50;95.80
42145;DHT22;27813;43.516;11.890;2023-05-10T05:04:56;15.50;95.80
42145;DHT22;27813;43.516;11.890;2023-05-10T05:09:01;15.50;96.00
42145;DHT22;27813;43.516;11.890;2023-05-10T05:13:06;15.50;96.10
42145;DHT22;27813;43.516;11.890;2023-05-10T05:17:10;15.50;96.10
42145;DHT22;27813;43.516;11.890;2023-05-10T05:21:17;15.60;96.20
42145;DHT22;27813;43.516;11.890;2023-05-10T05:25:22;15.60;96.20
42145;DHT22;27813;43.516;11.890;2023-05-10T05:29:28;15.70;96.20
42145;DHT22;27813;43.516;11.890;2023-05-10T05:33:32;15.80;96.10
42145;DHT22;27813;43.516;11.890;2023-05-10T05:37:36;15.80;96.20
42145;DHT22;27813;43.516;11.890;2023-05-10T05:41:41;15.90;96.20
42145;DHT22;27813;43.516;11.890;2023-05-10T05:45:44;16.00;96.20
42145;DHT22;27813;43.516;11.890;2023-05-10T05:49:48;16.10;96.30
42145;DHT22;27813;43.516;11.890;2023-05-10T05:53:53;16.20;96.20
42145;DHT22;27813;43.516;11.890;2023-05-10T05:57:57;16.20;96.10
42145;DHT22;27813;43.516;11.890;2023-05-10T06:02:02;16.40;96.20
42145;DHT22;27813;43.516;11.890;2023-05-10T06:06:06;16.40;96.10
42145;DHT22;27813;43.516;11.890;2023-05-10T06:10:10;16.50;96.20
42145;DHT22;27813;43.516;11.890;2023-05-10T06:14:14;16.60;96.30
42145;DHT22;27813;43.516;11.890;2023-05-10T06:18:19;17.00;96.40
42145;DHT22;27813;43.516;11.890;2023-05-10T06:22:23;17.10;96.20
42145;DHT22;27813;43.516;11.890;2023-05-10T06:26:27;17.40;96.00
42145;DHT22;27813;43.516;11.890;2023-05-10T06:30:31;17.50;95.90
42145;DHT22;27813;43.516;11.890;2023-05-10T06:34:35;17.70;95.80
42145;DHT22;27813;43.516;11.890;2023-05-10T06:38:39;18.00;95.80
42145;DHT22;27813;43.516;11.890;2023-05-10T06:42:44;18.20;95.40
42145;DHT22;27813;43.516;11.890;2023-05-10T06:46:48;18.40;95.10
42145;DHT22;27813;43.516;11.890;2023-05-10T06:50:53;18.50;94.90
42145;DHT22;27813;43.516;11.890;2023-05-10T06:54:57;18.50;94.70
42145;DHT22;27813;43.516;11.890;2023-05-10T06:59:01;18.40;94.70
42145;DHT22;27813;43.516;11.890;2023-05-10T07:03:06;18.40;94.80
42145;DHT22;27813;43.516;11.890;2023-05-10T07:07:11;18.40;94.80
42145;DHT22;27813;43.516;11.890;2023-05-10T07:11:16;18.40;95.10
42145;DHT22;27813;43.516;11.890;2023-05-10T07:15:20;18.40;95.30
42145;DHT22;27813;43.516;11.890;2023-05-10T07:19:25;18.50;95.10
42145;DHT22;27813;43.516;11.890;2023-05-10T07:23:29;18.40;94.90
42145;DHT22;27813;43.516;11.890;2023-05-10T07:27:34;18.30;95.00
42145;DHT22;27813;43.516;11.890;2023-05-10T07:31:38;18.40;95.60
42145;DHT22;27813;43.516;11.890;2023-05-10T07:35:45;18.60;95.70
42145;DHT22;27813;43.516;11.890;2023-05-10T07:39:50;18.90;95.10
42145;DHT22;27813;43.516;11.890;2023-05-10T07:43:55;18.80;95.00
42145;DHT22;27813;43.516;11.890;2023-05-10T07:47:59;18.90;95.40
42145;DHT22;27813;43.516;11.890;2023-05-10T07:52:04;19.10;95.40
42145;DHT22;27813;43.516;11.890;2023-05-10T07:56:27;19.30;95.20
42145;DHT22;27813;43.516;11.890;2023-05-10T08:00:36;19.50;94.60
42145;DHT22;27813;43.516;11.890;2023-05-10T08:04:43;19.60;95.30
42145;DHT22;27813;43.516;11.890;2023-05-10T08:08:48;20.00;94.90
42145;DHT22;27813;43.516;11.890;2023-05-10T08:12:54;20.20;94.50
42145;DHT22;27813;43.516;11.890;2023-05-10T08:16:58;20.20;94.20
42145;DHT22;27813;43.516;11.890;2023-05-10T08:21:03;20.50;94.10
42145;DHT22;27813;43.516;11.890;2023-05-10T08:25:08;20.60;93.70
42145;DHT22;27813;43.516;11.890;2023-05-10T08:29:12;20.80;93.70
42145;DHT22;27813;43.516;11.890;2023-05-10T08:33:19;21.00;93.40
42145;DHT22;27813;43.516;11.890;2023-05-10T08:37:24;21.00;93.20
42145;DHT22;27813;43.516;11.890;2023-05-10T08:41:30;21.10;93.20
42145;DHT22;27813;43.516;11.890;2023-05-10T08:45:42;21.20;93.10
42145;DHT22;27813;43.516;11.890;2023-05-10T08:49:48;21.20;93.00
42145;DHT22;27813;43.516;11.890;2023-05-10T08:53:55;21.20;92.90
42145;DHT22;27813;43.516;11.890;2023-05-10T08:58:00;21.20;92.90
42145;DHT22;27813;43.516;11.890;2023-05-10T09:02:05;21.20;92.70
42145;DHT22;27813;43.516;11.890;2023-05-10T09:06:12;21.30;92.50
42145;DHT22;27813;43.516;11.890;2023-05-10T09:10:17;21.00;92.50
42145;DHT22;27813;43.516;11.890;2023-05-10T09:14:25;20.60;92.50
42145;DHT22;27813;43.516;11.890;2023-05-10T09:18:30;20.40;92.80
42145;DHT22;27813;43.516;11.890;2023-05-10T09:22:34;20.20;93.20
42145;DHT22;27813;43.516;11.890;2023-05-10T09:26:48;20.10;93.70
42145;DHT22;27813;43.516;11.890;2023-05-10T09:30:53;20.00;93.60
42145;DHT22;27813;43.516;11.890;2023-05-10T09:35:16;19.80;94.40
42145;DHT22;27813;43.516;11.890;2023-05-10T09:39:30;19.90;95.00
42145;DHT22;27813;43.516;11.890;2023-05-10T09:43:39;20.10;94.80
42145;DHT22;27813;43.516;11.890;2023-05-10T09:47:45;20.30;94.80
42145;DHT22;27813;43.516;11.890;2023-05-10T09:52:07;20.60;95.20
42145;DHT22;27813;43.516;11.890;2023-05-10T09:56:11;20.80;94.20
42145;DHT22;27813;43.516;11.890;2023-05-10T10:00:19;20.60;94.10
42145;DHT22;27813;43.516;11.890;2023-05-10T10:04:24;20.70;94.50
42145;DHT22;27813;43.516;11.890;2023-05-10T10:08:35;20.80;94.50
42145;DHT22;27813;43.516;11.890;2023-05-10T10:12:40;20.80;94.30
42145;DHT22;27813;43.516;11.890;2023-05-10T10:16:46;20.70;94.20
42145;DHT22;27813;43.516;11.890;2023-05-10T10:21:09;20.60;94.10
42145;DHT22;27813;43.516;11.890;2023-05-10T10:25:16;20.40;94.10
42145;DHT22;27813;43.516;11.890;2023-05-10T10:34:08;19.90;93.70
42145;DHT22;27813;43.516;11.890;2023-05-10T10:38:14;19.50;93.90
42145;DHT22;27813;43.516;11.890;2023-05-10T10:42:46;19.20;94.50
42145;DHT22;27813;43.516;11.890;2023-05-10T10:47:06;19.10;95.30
42145;DHT22;27813;43.516;11.890;2023-05-10T10:51:16;19.00;95.70
42145;DHT22;27813;43.516;11.890;2023-05-10T10:55:21;18.90;95.70
42145;DHT22;27813;43.516;11.890;2023-05-10T10:59:30;18.80;95.40
42145;DHT22;27813;43.516;11.890;2023-05-10T11:03:35;18.60;95.50
42145;DHT22;27813;43.516;11.890;2023-05-10T11:07:52;18.60;95.90
42145;DHT22;27813;43.516;11.890;2023-05-10T11:11:56;18.40;95.60
42145;DHT22;27813;43.516;11.890;2023-05-10T11:16:44;18.40;95.90
42145;DHT22;27813;43.516;11.890;2023-05-10T11:20:58;18.20;95.70
42145;DHT22;27813;43.516;11.890;2023-05-10T11:25:09;18.10;95.80
42145;DHT22;27813;43.516;11.890;2023-05-10T11:29:13;18.10;96.00
42145;DHT22;27813;43.516;11.890;2023-05-10T11:33:18;18.10;96.50
42145;DHT22;27813;43.516;11.890;2023-05-10T11:37:23;18.00;96.20
42145;DHT22;27813;43.516;11.890;2023-05-10T11:41:29;17.90;96.20
42145;DHT22;27813;43.516;11.890;2023-05-10T11:45:34;17.80;96.00
42145;DHT22;27813;43.516;11.890;2023-05-10T11:49:43;17.70;96.10
42145;DHT22;27813;43.516;11.890;2023-05-10T11:53:49;17.50;95.70
42145;DHT22;27813;43.516;11.890;2023-05-10T11:57:54;17.50;96.40
42145;DHT22;27813;43.516;11.890;2023-05-10T12:01:59;17.50;96.60
42145;DHT22;27813;43.516;11.890;2023-05-10T12:06:03;17.70;96.70
42145;DHT22;27813;43.516;11.890;2023-05-10T12:10:10;17.70;96.20
42145;DHT22;27813;43.516;11.890;2023-05-10T12:14:17;17.50;95.90
42145;DHT22;27813;43.516;11.890;2023-05-10T12:18:26;17.50;96.40
42145;DHT22;27813;43.516;11.890;2023-05-10T12:22:33;17.50;96.20
42145;DHT22;27813;43.516;11.890;2023-05-10T12:26:39;17.50;96.70
42145;DHT22;27813;43.516;11.890;2023-05-10T12:30:44;17.40;96.10
42145;DHT22;27813;43.516;11.890;2023-05-10T12:34:48;17.30;96.10
42145;DHT22;27813;43.516;11.890;2023-05-10T12:39:02;17.30;96.50
42145;DHT22;27813;43.516;11.890;2023-05-10T12:43:06;17.30;96.60
42145;DHT22;27813;43.516;11.890;2023-05-10T12:47:11;17.30;96.80
42145;DHT22;27813;43.516;11.890;2023-05-10T12:51:18;17.20;96.80
42145;DHT22;27813;43.516;11.890;2023-05-10T12:55:25;17.10;96.50
42145;DHT22;27813;43.516;11.890;2023-05-10T12:59:29;17.20;96.80
42145;DHT22;27813;43.516;11.890;2023-05-10T13:03:37;17.30;97.00
42145;DHT22;27813;43.516;11.890;2023-05-10T13:07:41;17.20;97.00
42145;DHT22;27813;43.516;11.890;2023-05-10T13:11:47;17.20;97.10
42145;DHT22;27813;43.516;11.890;2023-05-10T13:15:52;17.30;97.10
42145;DHT22;27813;43.516;11.890;2023-05-10T13:19:56;17.30;97.10
42145;DHT22;27813;43.516;11.890;2023-05-10T13:24:00;17.30;97.00
42145;DHT22;27813;43.516;11.890;2023-05-10T13:28:07;17.20;96.90
42145;DHT22;27813;43.516;11.890;2023-05-10T13:32:11;17.20;96.80
42145;DHT22;27813;43.516;11.890;2023-05-10T13:36:17;17.10;96.80
42145;DHT22;27813;43.516;11.890;2023-05-10T13:40:22;17.00;96.60
42145;DHT22;27813;43.516;11.890;2023-05-10T13:44:26;17.00;96.80
42145;DHT22;27813;43.516;11.890;2023-05-10T13:48:31;17.10;97.10
42145;DHT22;27813;43.516;11.890;2023-05-10T13:52:35;17.10;96.80
42145;DHT22;27813;43.516;11.890;2023-05-10T13:56:42;17.10;96.70
42145;DHT22;27813;43.516;11.890;2023-05-10T14:00:47;17.20;97.00
42145;DHT22;27813;43.516;11.890;2023-05-10T14:04:52;17.20;96.90
42145;DHT22;27813;43.516;11.890;2023-05-10T14:08:56;17.30;97.20
42145;DHT22;27813;43.516;11.890;2023-05-10T14:13:00;17.30;96.90
42145;DHT22;27813;43.516;11.890;2023-05-10T14:17:05;17.40;97.10
42145;DHT22;27813;43.516;11.890;2023-05-10T14:21:09;17.40;96.80
42145;DHT22;27813;43.516;11.890;2023-05-10T14:25:14;17.40;97.00
42145;DHT22;27813;43.516;11.890;2023-05-10T14:29:19;17.50;97.20
42145;DHT22;27813;43.516;11.890;2023-05-10T14:33:23;17.70;97.50
42145;DHT22;27813;43.516;11.890;2023-05-10T14:37:30;17.90;97.40
42145;DHT22;27813;43.516;11.890;2023-05-10T14:41:34;18.00;97.20
42145;DHT22;27813;43.516;11.890;2023-05-10T14:45:42;17.80;96.70
42145;DHT22;27813;43.516;11.890;2023-05-10T14:49:46;17.50;96.10
42145;DHT22;27813;43.516;11.890;2023-05-10T14:53:50;17.30;96.20
42145;DHT22;27813;43.516;11.890;2023-05-10T14:57:54;17.00;96.20
42145;DHT22;27813;43.516;11.890;2023-05-10T15:02:05;16.80;96.00
42145;DHT22;27813;43.516;11.890;2023-05-10T15:06:14;16.50;95.90
42145;DHT22;27813;43.516;11.890;2023-05-10T15:10:19;16.40;96.40
42145;DHT22;27813;43.516;11.890;2023-05-10T15:14:24;16.50;97.00
42145;DHT22;27813;43.516;11.890;2023-05-10T15:18:28;16.50;97.00
42145;DHT22;27813;43.516;11.890;2023-05-10T15:22:32;16.30;96.50
42145;DHT22;27813;43.516;11.890;2023-05-10T15:26:36;16.10;96.60
42145;DHT22;27813;43.516;11.890;2023-05-10T15:30:40;16.00;96.90
42145;DHT22;27813;43.516;11.890;2023-05-10T15:34:45;16.00;96.80
42145;DHT22;27813;43.516;11.890;2023-05-10T15:38:48;16.00;97.20
42145;DHT22;27813;43.516;11.890;2023-05-10T15:42:52;16.10;97.50
42145;DHT22;27813;43.516;11.890;2023-05-10T15:46:56;16.40;97.80
42145;DHT22;27813;43.516;11.890;2023-05-10T15:51:00;16.50;97.80
42145;DHT22;27813;43.516;11.890;2023-05-10T15:55:05;16.50;97.90
42145;DHT22;27813;43.516;11.890;2023-05-10T15:59:15;16.60;97.90
42145;DHT22;27813;43.516;11.890;2023-05-10T16:03:19;16.60;97.90
42145;DHT22;27813;43.516;11.890;2023-05-10T16:07:23;16.50;97.80
42145;DHT22;27813;43.516;11.890;2023-05-10T16:11:28;16.50;97.70
42145;DHT22;27813;43.516;11.890;2023-05-10T16:15:32;16.50;97.60
42145;DHT22;27813;43.516;11.890;2023-05-10T16:19:36;16.40;97.40
42145;DHT22;27813;43.516;11.890;2023-05-10T16:23:41;16.30;97.40
42145;DHT22;27813;43.516;11.890;2023-05-10T16:27:46;16.30;97.40
42145;DHT22;27813;43.516;11.890;2023-05-10T16:31:50;16.20;97.40
42145;DHT22;27813;43.516;11.890;2023-05-10T16:35:54;16.20;97.50
42145;DHT22;27813;43.516;11.890;2023-05-10T16:39:58;16.30;97.60
42145;DHT22;27813;43.516;11.890;2023-05-10T16:44:03;16.20;97.60
42145;DHT22;27813;43.516;11.890;2023-05-10T16:48:07;16.20;97.50
42145;DHT22;27813;43.516;11.890;2023-05-10T16:52:11;16.20;97.50
42145;DHT22;27813;43.516;11.890;2023-05-10T16:56:16;16.10;97.50
42145;DHT22;27813;43.516;11.890;2023-05-10T17:00:21;16.20;97.60
42145;DHT22;27813;43.516;11.890;2023-05-10T17:04:25;16.10;97.60
42145;DHT22;27813;43.516;11.890;2023-05-10T17:08:29;16.00;97.40
42145;DHT22;27813;43.516;11.890;2023-05-10T17:12:33;15.80;97.10
42145;DHT22;27813;43.516;11.890;2023-05-10T17:16:38;15.70;97.10
42145;DHT22;27813;43.516;11.890;2023-05-10T17:20:43;15.60;97.20
42145;DHT22;27813;43.516;11.890;2023-05-10T17:24:48;15.50;97.10
42145;DHT22;27813;43.516;11.890;2023-05-10T17:28:52;15.50;97.40
42145;DHT22;27813;43.516;11.890;2023-05-10T17:33:00;15.40;97.40
42145;DHT22;27813;43.516;11.890;2023-05-10T17:37:04;15.30;97.40
42145;DHT22;27813;43.516;11.890;2023-05-10T17:41:09;15.20;97.40
42145;DHT22;27813;43.516;11.890;2023-05-10T17:45:13;15.10;97.40
42145;DHT22;27813;43.516;11.890;2023-05-10T17:49:18;15.20;97.40
42145;DHT22;27813;43.516;11.890;2023-05-10T17:53:21;15.10;97.50
42145;DHT22;27813;43.516;11.890;2023-05-10T17:57:26;15.10;97.40
42145;DHT22;27813;43.516;11.890;2023-05-10T18:01:31;15.10;97.50
42145;DHT22;27813;43.516;11.890;2023-05-10T18:05:36;15.20;97.60
42145;DHT22;27813;43.516;11.890;2023-05-10T18:09:41;15.00;97.60
42145;DHT22;27813;43.516;11.890;2023-05-10T18:13:46;15.00;97.50
42145;DHT22;27813;43.516;11.890;2023-05-10T18:17:51;14.90;97.40
42145;DHT22;27813;43.516;11.890;2023-05-10T18:21:56;14.70;97.30
42145;DHT22;27813;43.516;11.890;2023-05-10T18:26:01;14.70;97.40
42145;DHT22;27813;43.516;11.890;2023-05-10T18:30:06;14.70;97.50
42145;DHT22;27813;43.516;11.890;2023-05-10T18:34:13;14.70;97.50
42145;DHT22;27813;43.516;11.890;2023-05-10T18:38:18;14.70;97.60
42145;DHT22;27813;43.516;11.890;2023-05-10T18:42:24;14.70;97.50
42145;DHT22;27813;43.516;11.890;2023-05-10T18:46:29;14.70;97.40
42145;DHT22;27813;43.516;11.890;2023-05-10T18:50:38;14.60;97.40
42145;DHT22;27813;43.516;11.890;2023-05-10T18:54:45;14.60;97.40
42145;DHT22;27813;43.516;11.890;2023-05-10T18:58:51;14.50;97.40
42145;DHT22;27813;43.516;11.890;2023-05-10T19:02:56;14.50;97.30
42145;DHT22;27813;43.516;11.890;2023-05-10T19:07:02;14.50;97.50
42145;DHT22;27813;43.516;11.890;2023-05-10T19:11:07;14.50;97.50
42145;DHT22;27813;43.516;11.890;2023-05-10T19:15:12;14.50;97.50
42145;DHT22;27813;43.516;11.890;2023-05-10T19:19:16;14.50;97.30
42145;DHT22;27813;43.516;11.890;2023-05-10T19:23:23;14.50;97.30
42145;DHT22;27813;43.516;11.890;2023-05-10T19:27:32;14.40;97.20
42145;DHT22;27813;43.516;11.890;2023-05-10T19:31:37;14.30;97.20
42145;DHT22;27813;43.516;11.890;2023-05-10T19:35:44;14.30;97.30
42145;DHT22;27813;43.516;11.890;2023-05-10T19:39:49;14.20;97.40
42145;DHT22;27813;43.516;11.890;2023-05-10T19:43:55;14.10;97.30
42145;DHT22;27813;43.516;11.890;2023-05-10T19:48:03;13.90;97.00
42145;DHT22;27813;43.516;11.890;2023-05-10T19:52:10;13.80;97.00
42145;DHT22;27813;43.516;11.890;2023-05-10T19:56:17;13.80;97.20
42145;DHT22;27813;43.516;11.890;2023-05-10T20:00:24;13.70;97.30
42145;DHT22;27813;43.516;11.890;2023-05-10T20:04:40;13.70;97.40
42145;DHT22;27813;43.516;11.890;2023-05-10T20:08:50;13.70;97.50
42145;DHT22;27813;43.516;11.890;2023-05-10T20:12:59;13.70;97.50
42145;DHT22;27813;43.516;11.890;2023-05-10T20:17:09;13.70;97.50
42145;DHT22;27813;43.516;11.890;2023-05-10T20:21:16;13.70;97.50
42145;DHT22;27813;43.516;11.890;2023-05-10T20:25:25;13.70;97.60
42145;DHT22;27813;43.516;11.890;2023-05-10T20:29:32;13.70;97.50
42145;DHT22;27813;43.516;11.890;2023-05-10T20:33:40;13.70;97.50
42145;DHT22;27813;43.516;11.890;2023-05-10T20:37:45;13.70;97.60
42145;DHT22;27813;43.516;11.890;2023-05-10T20:41:51;13.70;97.50
42145;DHT22;27813;43.516;11.890;2023-05-10T20:45:57;13.60;97.50
42145;DHT22;27813;43.516;11.890;2023-05-10T20:50:10;13.60;97.50
42145;DHT22;27813;43.516;11.890;2023-05-10T20:54:18;13.50;97.40
42145;DHT22;27813;43.516;11.890;2023-05-10T20:58:23;13.50;97.40
42145;DHT22;27813;43.516;11.890;2023-05-10T21:02:28;13.50;97.40
42145;DHT22;27813;43.516;11.890;2023-05-10T21:06:36;13.50;97.40
42145;DHT22;27813;43.516;11.890;2023-05-10T21:10:41;13.40;97.40
42145;DHT22;27813;43.516;11.890;2023-05-10T21:14:45;13.40;97.40
42145;DHT22;27813;43.516;11.890;2023-05-10T21:19:32;13.50;97.50
42145;DHT22;27813;43.516;11.890;2023-05-10T21:23:37;13.50;97.60
42145;DHT22;27813;43.516;11.890;2023-05-10T21:27:42;13.60;97.70
42145;DHT22;27813;43.516;11.890;2023-05-10T21:31:47;13.60;97.60
42145;DHT22;27813;43.516;11.890;2023-05-10T21:35:52;13.50;97.50
42145;DHT22;27813;43.516;11.890;2023-05-10T21:40:02;13.40;97.20
42145;DHT22;27813;43.516;11.890;2023-05-10T21:44:07;13.20;97.20
42145;DHT22;27813;43.516;11.890;2023-05-10T21:48:14;13.20;97.20
42145;DHT22;27813;43.516;11.890;2023-05-10T21:52:19;13.10;97.20
42145;DHT22;27813;43.516;11.890;2023-05-10T21:56:24;13.00;97.20
42145;DHT22;27813;43.516;11.890;2023-05-10T22:00:30;13.00;97.20
42145;DHT22;27813;43.516;11.890;2023-05-10T22:04:40;12.90;97.20
42145;DHT22;27813;43.516;11.890;2023-05-10T22:08:53;12.80;97.00
42145;DHT22;27813;43.516;11.890;2023-05-10T22:13:04;12.70;97.10
42145;DHT22;27813;43.516;11.890;2023-05-10T22:17:14;12.70;97.20
42145;DHT22;27813;43.516;11.890;2023-05-10T22:21:19;12.80;97.40
42145;DHT22;27813;43.516;11.890;2023-05-10T22:25:26;12.80;97.40
42145;DHT22;27813;43.516;11.890;2023-05-10T22:29:33;12.70;97.30
42145;DHT22;27813;43.516;11.890;2023-05-10T22:33:38;12.60;97.10
42145;DHT22;27813;43.516;11.890;2023-05-10T22:37:43;12.50;97.10
42145;DHT22;27813;43.516;11.890;2023-05-10T22:41:47;12.50;97.20
42145;DHT22;27813;43.516;11.890;2023-05-10T22:45:51;12.60;97.30
42145;DHT22;27813;43.516;11.890;2023-05-10T22:49:55;12.60;97.30
42145;DHT22;27813;43.516;11.890;2023-05-10T22:54:01;12.50;97.20
42145;DHT22;27813;43.516;11.890;2023-05-10T22:58:05;12.50;97.20
42145;DHT22;27813;43.516;11.890;2023-05-10T23:02:09;12.50;97.20
42145;DHT22;27813;43.516;11.890;2023-05-10T23:06:14;12.50;97.20
42145;DHT22;27813;43.516;11.890;2023-05-10T23:10:19;12.50;97.20
42145;DHT22;27813;43.516;11.890;2023-05-10T23:14:23;12.40;97.40
42145;DHT22;27813;43.516;11.890;2023-05-10T23:18:27;12.50;97.50
42145;DHT22;27813;43.516;11.890;2023-05-10T23:22:31;12.60;97.60
42145;DHT22;27813;43.516;11.890;2023-05-10T23:26:35;12.70;97.60
